Terminal Aerodrome Forecast
Issued by NWS

Home | Current Version | Previous Version | Text Only | Print | Product List | Glossary On
Versions: 1 2 3 4 5 6 7 8 9 10 11 12 13 14 15 16 17 18 19 20 21 22 23 24 25 26 27 28
000
FTUS43 KGLD 200252 AAA
TAFMCK
TAF AMD
KMCK 200252Z 2003/2024 18018G28KT P6SM OVC200 WS020/17045KT
     FM200600 16012KT 6SM BR SCT005
     FM201000 24010KT P6SM SCT150
     FM201300 31011KT P6SM SCT150
     FM201500 30015G25KT P6SM FEW150
     FM201800 33015G25KT P6SM SCT150=

USA.gov is the U.S. government's official web portal to all federal, state and local government web resources and services.